HLE81 EGNE-EGNE
Flight info
| Callsign | HLE81 |
|---|---|
| Flight time | N/A |
| Altitude | 2000 |
| Route | VFR |
| Aircraft | A169/L-V/N |
Departure
| Time | 2026-04-17 14:13 |
|---|---|
| Airport | Retford Gamston Airport (EGNE) |
Arrival
| Time | N/A |
|---|---|
| Airport | Retford Gamston Airport (EGNE) |
| Time | Latitude | Longitude | Altitude | Speed | Heading |
|---|---|---|---|---|---|
| 2026-04-17 14:09 | 53.28142 | -0.94940 | 89 ft | 0 kts | 117° |
| 2026-04-17 14:13 | 53.28203 | -0.95129 | 317 ft | 49 kts | 290° |
| 2026-04-17 14:13 | 53.28470 | -0.95924 | 682 ft | 103 kts | 301° |
| 2026-04-17 14:13 | 53.28878 | -0.96901 | 1153 ft | 103 kts | 294° |
| 2026-04-17 14:13 | 53.29276 | -0.97871 | 1453 ft | 99 kts | 289° |
| 2026-04-17 14:14 | 53.29656 | -0.98824 | 1468 ft | 107 kts | 285° |
| 2026-04-17 14:14 | 53.30107 | -1.00045 | 1459 ft | 133 kts | 293° |
| 2026-04-17 14:14 | 53.30642 | -1.01351 | 1544 ft | 137 kts | 291° |
| 2026-04-17 14:14 | 53.31182 | -1.02681 | 1488 ft | 142 kts | 291° |
| 2026-04-17 14:15 | 53.31749 | -1.04095 | 1446 ft | 151 kts | 293° |
| 2026-04-17 14:15 | 53.32350 | -1.05554 | 1498 ft | 151 kts | 293° |
| 2026-04-17 14:15 | 53.32946 | -1.06997 | 1509 ft | 150 kts | 293° |
| 2026-04-17 14:15 | 53.33539 | -1.08442 | 1491 ft | 150 kts | 293° |
| 2026-04-17 14:16 | 53.34142 | -1.09912 | 1479 ft | 151 kts | 293° |
| 2026-04-17 14:16 | 53.34711 | -1.11296 | 1469 ft | 151 kts | 293° |
| 2026-04-17 14:16 | 53.35307 | -1.12746 | 1461 ft | 152 kts | 293° |
| 2026-04-17 14:16 | 53.35906 | -1.14206 | 1467 ft | 151 kts | 293° |
| 2026-04-17 14:17 | 53.36502 | -1.15660 | 1465 ft | 151 kts | 293° |
| 2026-04-17 14:17 | 53.37098 | -1.17107 | 1473 ft | 151 kts | 293° |
| 2026-04-17 14:17 | 53.37690 | -1.18559 | 1465 ft | 151 kts | 294° |
| 2026-04-17 14:17 | 53.38285 | -1.20006 | 1481 ft | 151 kts | 294° |
| 2026-04-17 14:18 | 53.38880 | -1.21464 | 1463 ft | 151 kts | 294° |
| 2026-04-17 14:18 | 53.39455 | -1.22868 | 1459 ft | 151 kts | 294° |
| 2026-04-17 14:18 | 53.40046 | -1.24309 | 1478 ft | 152 kts | 294° |
| 2026-04-17 14:18 | 53.40640 | -1.25761 | 1476 ft | 152 kts | 294° |
| 2026-04-17 14:19 | 53.41238 | -1.27225 | 1477 ft | 151 kts | 294° |
| 2026-04-17 14:19 | 53.41830 | -1.28670 | 1468 ft | 150 kts | 294° |
| 2026-04-17 14:19 | 53.42419 | -1.30118 | 1453 ft | 150 kts | 294° |
| 2026-04-17 14:19 | 53.43010 | -1.31569 | 1459 ft | 150 kts | 293° |
| 2026-04-17 14:20 | 53.43596 | -1.33003 | 1458 ft | 151 kts | 294° |
| 2026-04-17 14:20 | 53.44168 | -1.34410 | 1443 ft | 151 kts | 294° |
| 2026-04-17 14:20 | 53.44769 | -1.35885 | 1452 ft | 152 kts | 295° |
| 2026-04-17 14:20 | 53.45368 | -1.37349 | 1458 ft | 151 kts | 294° |
| 2026-04-17 14:21 | 53.45960 | -1.38801 | 1458 ft | 151 kts | 294° |
| 2026-04-17 14:21 | 53.46552 | -1.40260 | 1459 ft | 152 kts | 294° |
| 2026-04-17 14:21 | 53.47144 | -1.41715 | 1486 ft | 150 kts | 294° |
| 2026-04-17 14:21 | 53.47734 | -1.43171 | 1467 ft | 151 kts | 294° |
| 2026-04-17 14:22 | 53.48319 | -1.44617 | 1446 ft | 151 kts | 294° |
| 2026-04-17 14:22 | 53.48911 | -1.46076 | 1446 ft | 151 kts | 294° |
| 2026-04-17 14:22 | 53.49499 | -1.47540 | 1435 ft | 153 kts | 295° |
| 2026-04-17 14:22 | 53.50097 | -1.49008 | 1337 ft | 152 kts | 294° |
| 2026-04-17 14:23 | 53.50694 | -1.50493 | 1167 ft | 152 kts | 294° |
| 2026-04-17 14:23 | 53.51273 | -1.51934 | 1135 ft | 150 kts | 295° |
| 2026-04-17 14:23 | 53.51852 | -1.53342 | 1317 ft | 129 kts | 291° |
| 2026-04-17 14:23 | 53.52309 | -1.54443 | 1171 ft | 105 kts | 287° |
| 2026-04-17 14:24 | 53.52695 | -1.55429 | 1025 ft | 92 kts | 286° |
| 2026-04-17 14:24 | 53.53064 | -1.56189 | 866 ft | 76 kts | 291° |
| 2026-04-17 14:24 | 53.53383 | -1.56822 | 738 ft | 76 kts | 334° |
| 2026-04-17 14:24 | 53.53880 | -1.56661 | 669 ft | 63 kts | 6° |
| 2026-04-17 14:25 | 53.54172 | -1.56569 | 484 ft | 22 kts | 22° |
| 2026-04-17 14:25 | 53.54229 | -1.56530 | 442 ft | 13 kts | 24° |
| 2026-04-17 14:25 | 53.54279 | -1.56492 | 401 ft | 6 kts | 276° |
| 2026-04-17 14:25 | 53.54272 | -1.56538 | 384 ft | 9 kts | 216° |
| 2026-04-17 14:26 | 53.54261 | -1.56575 | 360 ft | 1 kts | 204° |
| 2026-04-17 14:26 | 53.54260 | -1.56576 | 359 ft | 0 kts | 204° |
| 2026-04-17 14:27 | 53.54266 | -1.56574 | 387 ft | 9 kts | 215° |
| 2026-04-17 14:27 | 53.54306 | -1.56646 | 604 ft | 18 kts | 129° |
| 2026-04-17 14:27 | 53.54196 | -1.56206 | 1028 ft | 81 kts | 92° |
| 2026-04-17 14:27 | 53.54285 | -1.54981 | 1398 ft | 129 kts | 87° |
| 2026-04-17 14:28 | 53.54776 | -1.53815 | 1546 ft | 125 kts | 32° |
| 2026-04-17 14:28 | 53.55575 | -1.53483 | 1467 ft | 116 kts | 343° |
| 2026-04-17 14:28 | 53.56336 | -1.53855 | 1465 ft | 114 kts | 330° |
| 2026-04-17 14:28 | 53.57167 | -1.54341 | 1365 ft | 148 kts | 339° |
| 2026-04-17 14:29 | 53.58226 | -1.54836 | 1492 ft | 163 kts | 339° |
| 2026-04-17 14:29 | 53.59337 | -1.55340 | 1482 ft | 171 kts | 339° |
| 2026-04-17 14:29 | 53.60514 | -1.55873 | 1477 ft | 175 kts | 339° |
| 2026-04-17 14:29 | 53.61686 | -1.56392 | 1530 ft | 175 kts | 339° |
| 2026-04-17 14:30 | 53.62848 | -1.56968 | 1519 ft | 173 kts | 337° |
| 2026-04-17 14:30 | 53.64009 | -1.57564 | 1504 ft | 174 kts | 337° |
| 2026-04-17 14:30 | 53.65145 | -1.58262 | 1497 ft | 173 kts | 332° |
| 2026-04-17 14:30 | 53.66197 | -1.58960 | 1492 ft | 173 kts | 332° |
| 2026-04-17 14:31 | 53.67236 | -1.59652 | 1509 ft | 174 kts | 332° |
| 2026-04-17 14:31 | 53.68317 | -1.60370 | 1506 ft | 174 kts | 332° |
| 2026-04-17 14:31 | 53.69369 | -1.61072 | 1506 ft | 174 kts | 332° |
| 2026-04-17 14:31 | 53.70512 | -1.61796 | 1490 ft | 175 kts | 336° |
| 2026-04-17 14:32 | 53.71672 | -1.62416 | 1509 ft | 174 kts | 336° |
| 2026-04-17 14:32 | 53.72832 | -1.63029 | 1499 ft | 174 kts | 335° |
| 2026-04-17 14:32 | 53.73974 | -1.63630 | 1520 ft | 173 kts | 335° |
| 2026-04-17 14:32 | 53.75126 | -1.64243 | 1495 ft | 173 kts | 335° |
| 2026-04-17 14:33 | 53.76277 | -1.64851 | 1478 ft | 173 kts | 336° |
| 2026-04-17 14:33 | 53.77449 | -1.65426 | 1485 ft | 174 kts | 337° |
| 2026-04-17 14:33 | 53.78627 | -1.66000 | 1490 ft | 174 kts | 337° |
| 2026-04-17 14:33 | 53.79797 | -1.66569 | 1495 ft | 174 kts | 337° |
| 2026-04-17 14:34 | 53.80960 | -1.67135 | 1500 ft | 174 kts | 337° |
| 2026-04-17 14:34 | 53.82129 | -1.67706 | 1491 ft | 175 kts | 338° |
| 2026-04-17 14:34 | 53.83295 | -1.68273 | 1506 ft | 173 kts | 338° |
| 2026-04-17 14:34 | 53.84457 | -1.68839 | 1513 ft | 173 kts | 338° |
| 2026-04-17 14:35 | 53.85607 | -1.69401 | 1516 ft | 173 kts | 337° |
| 2026-04-17 14:35 | 53.86762 | -1.69969 | 1504 ft | 173 kts | 338° |
| 2026-04-17 14:35 | 53.87922 | -1.70515 | 1499 ft | 173 kts | 339° |
| 2026-04-17 14:35 | 53.89086 | -1.71035 | 1501 ft | 172 kts | 339° |
| 2026-04-17 14:36 | 53.90251 | -1.71551 | 1477 ft | 172 kts | 338° |
| 2026-04-17 14:36 | 53.91407 | -1.72061 | 1483 ft | 172 kts | 338° |
| 2026-04-17 14:36 | 53.92564 | -1.72573 | 1507 ft | 171 kts | 337° |
| 2026-04-17 14:36 | 53.93715 | -1.73088 | 1502 ft | 171 kts | 336° |
| 2026-04-17 14:37 | 53.94857 | -1.73603 | 1511 ft | 171 kts | 337° |
| 2026-04-17 14:37 | 53.96021 | -1.74131 | 1462 ft | 172 kts | 337° |
| 2026-04-17 14:37 | 53.97185 | -1.74655 | 1462 ft | 173 kts | 339° |
| 2026-04-17 14:37 | 53.98343 | -1.75170 | 1495 ft | 172 kts | 339° |
| 2026-04-17 14:38 | 53.99495 | -1.75681 | 1555 ft | 168 kts | 339° |
| 2026-04-17 14:38 | 54.00612 | -1.76176 | 1718 ft | 166 kts | 340° |
| 2026-04-17 14:38 | 54.01731 | -1.76669 | 1963 ft | 165 kts | 340° |
| 2026-04-17 14:38 | 54.02844 | -1.77149 | 2226 ft | 165 kts | 339° |
| 2026-04-17 14:39 | 54.03960 | -1.77648 | 2457 ft | 167 kts | 339° |
| 2026-04-17 14:39 | 54.05077 | -1.78144 | 2708 ft | 167 kts | 339° |
| 2026-04-17 14:39 | 54.06214 | -1.78644 | 2959 ft | 167 kts | 338° |
| 2026-04-17 14:39 | 54.07339 | -1.79146 | 2965 ft | 171 kts | 335° |
| 2026-04-17 14:40 | 54.08518 | -1.79695 | 2937 ft | 178 kts | 336° |
| 2026-04-17 14:40 | 54.09720 | -1.80241 | 2989 ft | 179 kts | 336° |
| 2026-04-17 14:40 | 54.10916 | -1.80782 | 2996 ft | 179 kts | 336° |
| 2026-04-17 14:40 | 54.12124 | -1.81332 | 2986 ft | 178 kts | 336° |
| 2026-04-17 14:41 | 54.13274 | -1.81849 | 2986 ft | 178 kts | 336° |
| 2026-04-17 14:41 | 54.14479 | -1.82394 | 2993 ft | 178 kts | 336° |
| 2026-04-17 14:41 | 54.15619 | -1.82907 | 3020 ft | 177 kts | 335° |
| 2026-04-17 14:41 | 54.16810 | -1.83447 | 2986 ft | 177 kts | 335° |
| 2026-04-17 14:42 | 54.17988 | -1.83985 | 2979 ft | 178 kts | 335° |
| 2026-04-17 14:42 | 54.19184 | -1.84525 | 2988 ft | 177 kts | 335° |
| 2026-04-17 14:42 | 54.20295 | -1.85031 | 2963 ft | 176 kts | 335° |
| 2026-04-17 14:42 | 54.21476 | -1.85565 | 2940 ft | 177 kts | 336° |
| 2026-04-17 14:43 | 54.22675 | -1.86104 | 2960 ft | 177 kts | 336° |
| 2026-04-17 14:43 | 54.23864 | -1.86637 | 2958 ft | 177 kts | 336° |
| 2026-04-17 14:43 | 54.25058 | -1.87180 | 2971 ft | 177 kts | 336° |
| 2026-04-17 14:43 | 54.26255 | -1.87717 | 2985 ft | 176 kts | 335° |
| 2026-04-17 14:44 | 54.27436 | -1.88253 | 2975 ft | 177 kts | 335° |
| 2026-04-17 14:44 | 54.28629 | -1.88795 | 2962 ft | 177 kts | 335° |
| 2026-04-17 14:44 | 54.29769 | -1.89315 | 2967 ft | 178 kts | 335° |
| 2026-04-17 14:44 | 54.30958 | -1.89873 | 2979 ft | 179 kts | 334° |
| 2026-04-17 14:45 | 54.32151 | -1.90444 | 3003 ft | 178 kts | 334° |
| 2026-04-17 14:45 | 54.33351 | -1.91020 | 2987 ft | 178 kts | 334° |
| 2026-04-17 14:45 | 54.34539 | -1.91592 | 2970 ft | 178 kts | 334° |
| 2026-04-17 14:45 | 54.35730 | -1.92167 | 2956 ft | 177 kts | 335° |
| 2026-04-17 14:46 | 54.36916 | -1.92740 | 2948 ft | 177 kts | 335° |
| 2026-04-17 14:46 | 54.38097 | -1.93304 | 2951 ft | 177 kts | 334° |
| 2026-04-17 14:46 | 54.39276 | -1.93867 | 2956 ft | 177 kts | 334° |
| 2026-04-17 14:46 | 54.40464 | -1.94437 | 3006 ft | 177 kts | 334° |
| 2026-04-17 14:47 | 54.41655 | -1.95013 | 2957 ft | 178 kts | 334° |
| 2026-04-17 14:47 | 54.42844 | -1.95591 | 2949 ft | 177 kts | 335° |
| 2026-04-17 14:47 | 54.44028 | -1.96159 | 2955 ft | 176 kts | 335° |
| 2026-04-17 14:47 | 54.45213 | -1.96733 | 2939 ft | 177 kts | 335° |
| 2026-04-17 14:48 | 54.46398 | -1.97303 | 2945 ft | 176 kts | 334° |
| 2026-04-17 14:48 | 54.47578 | -1.97875 | 2920 ft | 177 kts | 335° |
| 2026-04-17 14:48 | 54.48714 | -1.98417 | 2956 ft | 178 kts | 335° |
| 2026-04-17 14:48 | 54.49905 | -1.98991 | 2978 ft | 177 kts | 335° |
| 2026-04-17 14:49 | 54.51104 | -1.99574 | 2969 ft | 177 kts | 335° |
| 2026-04-17 14:49 | 54.52277 | -2.00141 | 2963 ft | 178 kts | 334° |
| 2026-04-17 14:49 | 54.53470 | -2.00721 | 2955 ft | 178 kts | 334° |
| 2026-04-17 14:49 | 54.54661 | -2.01300 | 2954 ft | 178 kts | 334° |
| 2026-04-17 14:50 | 54.55841 | -2.01873 | 2960 ft | 176 kts | 334° |
| 2026-04-17 14:50 | 54.57035 | -2.02455 | 2948 ft | 176 kts | 334° |
| 2026-04-17 14:50 | 54.58226 | -2.03035 | 2937 ft | 177 kts | 334° |
| 2026-04-17 14:50 | 54.59412 | -2.03608 | 2943 ft | 176 kts | 334° |
| 2026-04-17 14:51 | 54.60580 | -2.04176 | 2909 ft | 178 kts | 334° |
| 2026-04-17 14:51 | 54.61778 | -2.04761 | 2931 ft | 177 kts | 335° |
| 2026-04-17 14:51 | 54.62954 | -2.05317 | 2972 ft | 177 kts | 334° |
| 2026-04-17 14:51 | 54.64138 | -2.05881 | 2969 ft | 176 kts | 334° |
| 2026-04-17 14:52 | 54.65324 | -2.06440 | 2948 ft | 178 kts | 335° |
| 2026-04-17 14:52 | 54.66520 | -2.07004 | 2964 ft | 178 kts | 334° |
| 2026-04-17 14:52 | 54.67717 | -2.07573 | 2904 ft | 177 kts | 335° |
| 2026-04-17 14:52 | 54.68909 | -2.08140 | 2920 ft | 177 kts | 335° |
| 2026-04-17 14:53 | 54.70105 | -2.08700 | 2912 ft | 180 kts | 335° |
| 2026-04-17 14:53 | 54.71311 | -2.09262 | 2962 ft | 178 kts | 335° |
| 2026-04-17 14:53 | 54.72510 | -2.09827 | 2947 ft | 179 kts | 335° |
| 2026-04-17 14:53 | 54.73701 | -2.10392 | 2941 ft | 179 kts | 335° |
| 2026-04-17 14:54 | 54.74919 | -2.10968 | 2939 ft | 181 kts | 334° |
| 2026-04-17 14:54 | 54.76128 | -2.11539 | 2953 ft | 179 kts | 334° |
| 2026-04-17 14:54 | 54.77330 | -2.12114 | 2896 ft | 182 kts | 335° |
| 2026-04-17 14:54 | 54.78556 | -2.12692 | 2915 ft | 182 kts | 335° |
| 2026-04-17 14:55 | 54.79773 | -2.13267 | 2955 ft | 180 kts | 334° |
| 2026-04-17 14:55 | 54.80980 | -2.13843 | 2922 ft | 179 kts | 334° |
| 2026-04-17 14:55 | 54.82167 | -2.14409 | 2926 ft | 178 kts | 334° |
| 2026-04-17 14:55 | 54.83382 | -2.14986 | 2909 ft | 179 kts | 335° |
| 2026-04-17 14:56 | 54.84584 | -2.15554 | 2901 ft | 180 kts | 335° |
| 2026-04-17 14:56 | 54.85785 | -2.16126 | 2925 ft | 179 kts | 335° |
| 2026-04-17 14:56 | 54.86985 | -2.16695 | 2931 ft | 179 kts | 334° |
| 2026-04-17 14:56 | 54.88209 | -2.17283 | 2908 ft | 181 kts | 335° |
| 2026-04-17 14:57 | 54.89406 | -2.17847 | 2939 ft | 179 kts | 335° |
| 2026-04-17 14:57 | 54.90613 | -2.18428 | 2932 ft | 179 kts | 334° |
| 2026-04-17 14:57 | 54.91822 | -2.18998 | 2926 ft | 179 kts | 334° |
| 2026-04-17 14:57 | 54.93042 | -2.19589 | 2912 ft | 182 kts | 335° |
| 2026-04-17 14:58 | 54.94243 | -2.20157 | 2948 ft | 179 kts | 334° |
| 2026-04-17 14:58 | 54.95448 | -2.20737 | 2905 ft | 181 kts | 334° |
| 2026-04-17 14:58 | 54.96672 | -2.21318 | 2914 ft | 180 kts | 334° |
| 2026-04-17 14:58 | 54.97881 | -2.21899 | 2931 ft | 180 kts | 333° |
| 2026-04-17 14:59 | 54.99086 | -2.22477 | 2929 ft | 181 kts | 334° |
| 2026-04-17 14:59 | 55.00298 | -2.23058 | 2911 ft | 181 kts | 334° |
| 2026-04-17 14:59 | 55.01511 | -2.23641 | 2910 ft | 179 kts | 334° |
| 2026-04-17 14:59 | 55.02714 | -2.24221 | 2904 ft | 182 kts | 334° |
| 2026-04-17 15:00 | 55.03931 | -2.24802 | 2933 ft | 179 kts | 334° |
| 2026-04-17 15:00 | 55.05117 | -2.25375 | 2905 ft | 179 kts | 334° |
| 2026-04-17 15:00 | 55.06317 | -2.25955 | 2901 ft | 180 kts | 334° |
| 2026-04-17 15:00 | 55.07537 | -2.26536 | 2895 ft | 181 kts | 335° |
| 2026-04-17 15:01 | 55.08751 | -2.27125 | 2896 ft | 182 kts | 335° |
| 2026-04-17 15:01 | 55.09969 | -2.27708 | 2912 ft | 181 kts | 335° |
| 2026-04-17 15:01 | 55.11160 | -2.28283 | 2913 ft | 181 kts | 335° |
| 2026-04-17 15:01 | 55.12213 | -2.28943 | 2918 ft | 175 kts | 320° |
| 2026-04-17 15:02 | 55.13269 | -2.30029 | 2935 ft | 173 kts | 317° |
| 2026-04-17 15:02 | 55.14291 | -2.31131 | 2921 ft | 172 kts | 317° |
| 2026-04-17 15:02 | 55.15317 | -2.32239 | 2912 ft | 174 kts | 317° |
| 2026-04-17 15:02 | 55.16347 | -2.33349 | 2941 ft | 173 kts | 317° |
| 2026-04-17 15:03 | 55.17370 | -2.34454 | 2922 ft | 175 kts | 317° |
| 2026-04-17 15:03 | 55.18397 | -2.35565 | 2939 ft | 173 kts | 316° |
| 2026-04-17 15:03 | 55.19420 | -2.36671 | 2913 ft | 173 kts | 317° |
| 2026-04-17 15:03 | 55.20461 | -2.37799 | 2892 ft | 174 kts | 317° |
| 2026-04-17 15:04 | 55.21486 | -2.38909 | 2916 ft | 174 kts | 317° |
| 2026-04-17 15:04 | 55.22508 | -2.40012 | 2909 ft | 175 kts | 316° |
| 2026-04-17 15:04 | 55.23545 | -2.41133 | 2922 ft | 174 kts | 317° |
| 2026-04-17 15:04 | 55.24575 | -2.42250 | 2917 ft | 175 kts | 316° |
| 2026-04-17 15:05 | 55.25541 | -2.43299 | 2935 ft | 174 kts | 317° |
| 2026-04-17 15:05 | 55.26568 | -2.44409 | 2933 ft | 175 kts | 316° |
| 2026-04-17 15:05 | 55.27595 | -2.45534 | 2924 ft | 175 kts | 316° |
| 2026-04-17 15:05 | 55.28674 | -2.46301 | 2935 ft | 184 kts | 334° |
| 2026-04-17 15:06 | 55.29903 | -2.46878 | 2902 ft | 184 kts | 335° |
| 2026-04-17 15:06 | 55.31141 | -2.47442 | 2905 ft | 185 kts | 335° |
| 2026-04-17 15:06 | 55.32401 | -2.48013 | 2874 ft | 186 kts | 336° |
| 2026-04-17 15:06 | 55.33641 | -2.48573 | 2924 ft | 184 kts | 336° |
| 2026-04-17 15:07 | 55.34801 | -2.49095 | 2864 ft | 185 kts | 336° |
| 2026-04-17 15:07 | 55.36053 | -2.49664 | 2901 ft | 183 kts | 337° |
| 2026-04-17 15:07 | 55.37291 | -2.50223 | 2908 ft | 185 kts | 337° |
| 2026-04-17 15:07 | 55.38532 | -2.50784 | 2923 ft | 184 kts | 336° |
| 2026-04-17 15:08 | 55.39761 | -2.51347 | 2899 ft | 185 kts | 336° |
| 2026-04-17 15:08 | 55.41003 | -2.51911 | 2899 ft | 182 kts | 336° |
| 2026-04-17 15:08 | 55.42252 | -2.52475 | 2886 ft | 184 kts | 336° |
| 2026-04-17 15:08 | 55.43483 | -2.53030 | 2893 ft | 184 kts | 336° |
| 2026-04-17 15:09 | 55.44705 | -2.53589 | 2921 ft | 182 kts | 336° |
| 2026-04-17 15:09 | 55.45945 | -2.54151 | 2911 ft | 184 kts | 336° |
| 2026-04-17 15:09 | 55.47183 | -2.54725 | 2902 ft | 184 kts | 336° |
| 2026-04-17 15:09 | 55.48414 | -2.55283 | 2887 ft | 185 kts | 336° |
| 2026-04-17 15:10 | 55.49664 | -2.55850 | 2882 ft | 185 kts | 336° |
| 2026-04-17 15:10 | 55.50909 | -2.56418 | 2885 ft | 185 kts | 336° |
| 2026-04-17 15:10 | 55.52156 | -2.56989 | 2899 ft | 185 kts | 336° |
| 2026-04-17 15:11 | 55.54654 | -2.58130 | 2898 ft | 185 kts | 336° |
| 2026-04-17 15:11 | 55.55856 | -2.58679 | 2894 ft | 185 kts | 336° |
| 2026-04-17 15:11 | 55.57094 | -2.59246 | 2889 ft | 185 kts | 336° |
| 2026-04-17 15:11 | 55.58340 | -2.59818 | 2889 ft | 184 kts | 336° |
| 2026-04-17 15:12 | 55.59578 | -2.60387 | 2888 ft | 184 kts | 336° |
| 2026-04-17 15:12 | 55.60814 | -2.60955 | 2888 ft | 184 kts | 337° |
| 2026-04-17 15:12 | 55.62053 | -2.61524 | 2871 ft | 185 kts | 337° |
| 2026-04-17 15:12 | 55.63291 | -2.62091 | 2869 ft | 184 kts | 337° |
| 2026-04-17 15:13 | 55.64533 | -2.62660 | 2866 ft | 185 kts | 337° |
| 2026-04-17 15:13 | 55.65773 | -2.63227 | 2842 ft | 183 kts | 336° |
| 2026-04-17 15:13 | 55.67009 | -2.63800 | 2681 ft | 184 kts | 335° |
| 2026-04-17 15:13 | 55.68235 | -2.64372 | 2496 ft | 184 kts | 336° |
| 2026-04-17 15:14 | 55.69481 | -2.64916 | 2428 ft | 184 kts | 338° |
| 2026-04-17 15:14 | 55.70723 | -2.65444 | 2439 ft | 183 kts | 338° |
| 2026-04-17 15:14 | 55.71967 | -2.65971 | 2464 ft | 183 kts | 337° |
| 2026-04-17 15:14 | 55.73145 | -2.66474 | 2475 ft | 184 kts | 338° |
| 2026-04-17 15:15 | 55.74387 | -2.67002 | 2487 ft | 184 kts | 337° |
| 2026-04-17 15:15 | 55.75624 | -2.67532 | 2492 ft | 184 kts | 337° |
| 2026-04-17 15:15 | 55.76872 | -2.68070 | 2475 ft | 185 kts | 337° |
| 2026-04-17 15:15 | 55.78126 | -2.68607 | 2490 ft | 184 kts | 337° |
| 2026-04-17 15:16 | 55.79373 | -2.69142 | 2478 ft | 185 kts | 337° |
| 2026-04-17 15:16 | 55.80609 | -2.69675 | 2484 ft | 184 kts | 338° |
| 2026-04-17 15:16 | 55.81851 | -2.70208 | 2505 ft | 183 kts | 338° |
| 2026-04-17 15:16 | 55.83094 | -2.70741 | 2489 ft | 181 kts | 337° |
| 2026-04-17 15:17 | 55.84330 | -2.71274 | 2450 ft | 183 kts | 337° |
| 2026-04-17 15:17 | 55.85563 | -2.71810 | 2460 ft | 184 kts | 338° |
| 2026-04-17 15:17 | 55.86801 | -2.72335 | 2470 ft | 183 kts | 338° |
| 2026-04-17 15:17 | 55.88026 | -2.72865 | 2497 ft | 180 kts | 337° |
| 2026-04-17 15:18 | 55.89263 | -2.73403 | 2478 ft | 181 kts | 338° |
| 2026-04-17 15:18 | 55.90494 | -2.73934 | 2467 ft | 183 kts | 338° |
| 2026-04-17 15:18 | 55.91731 | -2.74469 | 2467 ft | 183 kts | 338° |
| 2026-04-17 15:18 | 55.92961 | -2.75001 | 2456 ft | 184 kts | 338° |
| 2026-04-17 15:19 | 55.94211 | -2.75541 | 2470 ft | 183 kts | 338° |
| 2026-04-17 15:19 | 55.95454 | -2.76058 | 2464 ft | 184 kts | 340° |
| 2026-04-17 15:19 | 55.96710 | -2.76498 | 2469 ft | 184 kts | 341° |
| 2026-04-17 15:19 | 55.97969 | -2.76925 | 2456 ft | 185 kts | 341° |
| 2026-04-17 15:20 | 55.99227 | -2.77350 | 2452 ft | 185 kts | 341° |
| 2026-04-17 15:20 | 56.00506 | -2.77784 | 2469 ft | 185 kts | 341° |
| 2026-04-17 15:20 | 56.01752 | -2.78207 | 2472 ft | 184 kts | 340° |
| 2026-04-17 15:20 | 56.03009 | -2.78638 | 2471 ft | 182 kts | 341° |
| 2026-04-17 15:21 | 56.04142 | -2.79464 | 2453 ft | 173 kts | 315° |
| 2026-04-17 15:21 | 56.05161 | -2.80627 | 2416 ft | 183 kts | 333° |
| 2026-04-17 15:21 | 56.06450 | -2.80622 | 2486 ft | 187 kts | 2° |
| 2026-04-17 15:21 | 56.07727 | -2.80556 | 2458 ft | 184 kts | 349° |
| 2026-04-17 15:22 | 56.09006 | -2.80791 | 2413 ft | 184 kts | 344° |
| 2026-04-17 15:22 | 56.10245 | -2.81141 | 2497 ft | 175 kts | 341° |
| 2026-04-17 15:22 | 56.11405 | -2.81676 | 2463 ft | 166 kts | 321° |
| 2026-04-17 15:22 | 56.12261 | -2.82959 | 2441 ft | 157 kts | 301° |
| 2026-04-17 15:23 | 56.12925 | -2.84437 | 2416 ft | 155 kts | 295° |
| 2026-04-17 15:23 | 56.13545 | -2.86033 | 2420 ft | 154 kts | 292° |
| 2026-04-17 15:23 | 56.14133 | -2.87648 | 2430 ft | 154 kts | 291° |
| 2026-04-17 15:23 | 56.14709 | -2.89280 | 2452 ft | 153 kts | 290° |
| 2026-04-17 15:24 | 56.15274 | -2.90905 | 2449 ft | 154 kts | 290° |
| 2026-04-17 15:24 | 56.15836 | -2.92530 | 2450 ft | 153 kts | 290° |
| 2026-04-17 15:24 | 56.16398 | -2.94164 | 2439 ft | 154 kts | 290° |
| 2026-04-17 15:24 | 56.16963 | -2.95801 | 2435 ft | 154 kts | 290° |
| 2026-04-17 15:25 | 56.17522 | -2.97426 | 2440 ft | 153 kts | 289° |
| 2026-04-17 15:25 | 56.18079 | -2.99050 | 2443 ft | 153 kts | 290° |
| 2026-04-17 15:25 | 56.18688 | -3.00661 | 2417 ft | 162 kts | 304° |
| 2026-04-17 15:25 | 56.19546 | -3.01932 | 2462 ft | 162 kts | 311° |
| 2026-04-17 15:26 | 56.20446 | -3.03181 | 2455 ft | 162 kts | 312° |
| 2026-04-17 15:26 | 56.21346 | -3.04427 | 2442 ft | 163 kts | 312° |
| 2026-04-17 15:26 | 56.22226 | -3.05668 | 2444 ft | 162 kts | 311° |
| 2026-04-17 15:26 | 56.23105 | -3.06919 | 2451 ft | 161 kts | 310° |
| 2026-04-17 15:27 | 56.23993 | -3.08193 | 2438 ft | 162 kts | 311° |
| 2026-04-17 15:27 | 56.24874 | -3.09456 | 2444 ft | 162 kts | 311° |
| 2026-04-17 15:27 | 56.25754 | -3.10711 | 2432 ft | 162 kts | 311° |
| 2026-04-17 15:27 | 56.26633 | -3.11973 | 2426 ft | 163 kts | 311° |
| 2026-04-17 15:28 | 56.27535 | -3.13247 | 2439 ft | 165 kts | 313° |
| 2026-04-17 15:28 | 56.28451 | -3.14471 | 2458 ft | 164 kts | 313° |
| 2026-04-17 15:28 | 56.29334 | -3.15639 | 2448 ft | 165 kts | 313° |
| 2026-04-17 15:28 | 56.30258 | -3.16865 | 2448 ft | 164 kts | 313° |
| 2026-04-17 15:29 | 56.31177 | -3.18085 | 2445 ft | 164 kts | 313° |
| 2026-04-17 15:29 | 56.32108 | -3.19290 | 2424 ft | 166 kts | 318° |
| 2026-04-17 15:29 | 56.33100 | -3.20342 | 2440 ft | 166 kts | 320° |
| 2026-04-17 15:29 | 56.34099 | -3.21378 | 2429 ft | 166 kts | 320° |
| 2026-04-17 15:30 | 56.35092 | -3.22408 | 2459 ft | 163 kts | 320° |
| 2026-04-17 15:30 | 56.36039 | -3.23416 | 2495 ft | 152 kts | 317° |
| 2026-04-17 15:30 | 56.36924 | -3.24389 | 2443 ft | 149 kts | 317° |
| 2026-04-17 15:30 | 56.37817 | -3.25362 | 2406 ft | 149 kts | 318° |
| 2026-04-17 15:31 | 56.38816 | -3.26025 | 2402 ft | 157 kts | 341° |
| 2026-04-17 15:31 | 56.39890 | -3.26353 | 2420 ft | 156 kts | 342° |
| 2026-04-17 15:31 | 56.40986 | -3.26360 | 2386 ft | 164 kts | 11° |
| 2026-04-17 15:31 | 56.41922 | -3.25245 | 2346 ft | 161 kts | 49° |
| 2026-04-17 15:32 | 56.42349 | -3.23476 | 2186 ft | 151 kts | 86° |
| 2026-04-17 15:32 | 56.42397 | -3.21616 | 2039 ft | 147 kts | 88° |
| 2026-04-17 15:32 | 56.42489 | -3.19770 | 1842 ft | 147 kts | 85° |
| 2026-04-17 15:32 | 56.42633 | -3.17940 | 1649 ft | 147 kts | 82° |
| 2026-04-17 15:33 | 56.42810 | -3.16134 | 1451 ft | 149 kts | 81° |
| 2026-04-17 15:33 | 56.42987 | -3.14273 | 1260 ft | 148 kts | 83° |
| 2026-04-17 15:33 | 56.43135 | -3.12444 | 1136 ft | 143 kts | 83° |
| 2026-04-17 15:33 | 56.43275 | -3.10728 | 1005 ft | 135 kts | 82° |
| 2026-04-17 15:34 | 56.43411 | -3.09076 | 934 ft | 132 kts | 84° |
| 2026-04-17 15:34 | 56.43537 | -3.07455 | 930 ft | 131 kts | 86° |
| 2026-04-17 15:34 | 56.43573 | -3.05814 | 964 ft | 130 kts | 91° |
| 2026-04-17 15:34 | 56.43597 | -3.04187 | 982 ft | 129 kts | 91° |
| 2026-04-17 15:35 | 56.43624 | -3.02567 | 994 ft | 127 kts | 90° |
| 2026-04-17 15:35 | 56.43690 | -3.01021 | 1002 ft | 116 kts | 86° |
| 2026-04-17 15:35 | 56.44054 | -2.99854 | 876 ft | 106 kts | 22° |
| 2026-04-17 15:35 | 56.44687 | -2.99727 | 557 ft | 90 kts | 325° |
| 2026-04-17 15:36 | 56.45134 | -3.00344 | 286 ft | 75 kts | 284° |
| 2026-04-17 15:36 | 56.45225 | -3.01093 | 134 ft | 49 kts | 266° |
| 2026-04-17 15:36 | 56.45229 | -3.01543 | 64 ft | 25 kts | 268° |
| 2026-04-17 15:36 | 56.45233 | -3.01790 | 33 ft | 15 kts | 278° |
| 2026-04-17 15:37 | 56.45254 | -3.01894 | 47 ft | 7 kts | 32° |
| 2026-04-17 15:37 | 56.45285 | -3.01869 | 30 ft | 4 kts | 38° |
| 2026-04-17 15:37 | 56.45295 | -3.01856 | 20 ft | 0 kts | 35° |
| 2026-04-17 15:37 | 56.45307 | -3.01839 | 20 ft | 4 kts | 40° |
| 2026-04-17 15:38 | 56.45324 | -3.01774 | 20 ft | 6 kts | 94° |
| 2026-04-17 15:38 | 56.45324 | -3.01746 | 20 ft | 7 kts | 92° |
| 2026-04-17 15:38 | 56.45324 | -3.01743 | 20 ft | 7 kts | 92° |
| 2026-04-17 15:38 | 56.45331 | -3.01657 | 20 ft | 7 kts | 23° |
| 2026-04-17 15:39 | 56.45363 | -3.01649 | 20 ft | 0 kts | 359° |